KPZQ METAR Reports


Rogers City, Presque Isle County Airport, MI, United States (KPZQ) 45-24-25N 083-48-46W
Feb 18, 2019 - 01:35 PM EST / 2019.02.18 1835 UTC
Wind: from the NNW (340 degrees) at 8 MPH (7 KT):0
Visibility: 10 mile(s):0
Sky conditions: partly cloudy
Temperature: 13.6 F (-10.2 C)
Windchill: 3 F (-16 C):1
Dew Point: 6.3 F (-14.3 C)
Relative Humidity: 71%
Pressure (altimeter): 30.33 in. Hg (1027 hPa)
ob: KPZQ 181835Z AUTO 34007KT 10SM SCT018 M10/M14 A3033 RMK AO2 T11021143
cycle: 18

 

Rogers City METAR Meteogram

Weather Chart

Nearby METAR Reports

KPZQ - Rogers City, Michigan, USA
Distance from station: SSW 1mi, 2km
Updated: Mon, 18-Feb-2019 1:35pm EST
Partly cloudy
Partly cloudy
 Wind from NNW
Wind: NNW 8 mph , 13 km/h
Temperature: 14°F , -10°C
Wind Chill: 3°F , -16°C
Dew Point: 7°F , -14°C
Humidity: 73%
Barometer: 30.33 inHg , 1027.1 hPa
Clouds: Partly cloudy
Visibility: 10 miles , 16 km
Cloud details: Partly cloudy 1800 ft
2019/02/18 18:35 KPZQ 181835Z AUTO 34007KT 10SM SCT018 M10/M14 A3033 RMK AO2 T11021143
KAPN - Alpena, Michigan, USA
Distance from station: SSE 27mi, 43km
Updated: Mon, 18-Feb-2019 1:40pm EST
Partly cloudy
Partly cloudy
 Wind from NNW
Wind: NNW 13 mph , 20 km/h
Temperature: 16°F , -9°C
Wind Chill: 2°F , -17°C
Dew Point: 5°F , -15°C
Humidity: 62%
Barometer: 30.31 inHg , 1026.4 hPa
Clouds: Partly cloudy
Visibility: 10 miles , 16 km
Cloud details: Partly cloudy 2600 ft
2019/02/18 18:40 KAPN 181840Z AUTO 34011KT 10SM SCT026 M09/M15 A3031 RMK AO2 T10941150
 
KSLH - Cheboygan, Michigan, USA
Distance from station: WNW 38mi, 61km
Updated: Mon, 18-Feb-2019 1:35pm EST
Clear
Clear
 Wind from N
Wind: N 6 mph , 9 km/h
Temperature: 14°F , -10°C
Wind Chill: 5°F , -15°C
Dew Point: 1°F , -17°C
Humidity: 57%
Barometer: 30.33 inHg , 1027.1 hPa
Clouds: Clear
Visibility: 10 miles , 16 km
2019/02/18 18:35 KSLH 181835Z AUTO 36005KT 10SM CLR M10/M17 A3033 RMK AO2 T11051171
KDRM - Drummond Is, Michigan, USA
Distance from station: N 40mi, 65km
Updated: Mon, 18-Feb-2019 1:35pm EST
Clear
Clear
 Wind from N
Wind: N 3 mph , 6 km/h
Temperature: 10°F , -12°C
Dew Point: -4°F , -20°C
Humidity: 52%
Barometer: 30.32 inHg , 1026.8 hPa
Clouds: Clear
Visibility: 10 miles , 16 km
2019/02/18 18:35 KDRM 181835Z AUTO 01003KT 10SM CLR M12/M20 A3032 RMK AO2 T11251201
 
KPLN - Pellston, Michigan, USA
Distance from station: WNW 49mi, 79km
Updated: Mon, 18-Feb-2019 12:54pm EST
NOT Current
Clear
Clear
 Wind from calm
Wind: Calm
Temperature: 16°F , -9°C
Dew Point: 3°F , -16°C
Humidity: 57%
Barometer: 30.34 inHg , 1027.4 hPa
Clouds: Clear
Visibility: 10 miles , 16 km
2019/02/18 17:54 KPLN 181754Z AUTO 00000KT 10SM CLR M09/M16 A3034 RMK AO2 SLP291 T10891161 11089 21161 51017
KMCD - Mackinac Island, Michigan, USA
Distance from station: NW 50mi, 80km
Updated: Mon, 18-Feb-2019 1:36pm EST
Clear
Clear
 Wind from W
Wind: W 6 mph , 9 km/h
Temperature: 14°F , -10°C
Wind Chill: 5°F , -15°C
Dew Point: 1°F , -17°C
Humidity: 57%
Barometer: 30.33 inHg , 1027.1 hPa
Clouds: Clear
Visibility: 10 miles , 16 km
2019/02/18 18:36 KMCD 181836Z AUTO 28005KT 10SM CLR M10/M17 A3033 RMK AO2 T11011173